Address 0x62885c3a313255d589ac3843c5e1a18e39c008d4 1

 
 
Txn Hash Method
Block
From
To
Value [Txn Fee]
0xafe683fbf1f8cdf9c5317fce45e2676763629b3cc8344d74774bcb42523cf1830x1de9c881110604352021-09-19 20:59:576 mins ago0x62885c3a313255d589ac3843c5e1a18e39c008d4OUT 0xb5e42a9285f53da20dd9fdf17c6e25040949f2480 BNB0.00019319
0x66e38ebe631431693f9c81ccba8b5013528b2ca9ea31738776a19f95fc43b06d0x1de9c881110604002021-09-19 20:58:128 mins ago0x62885c3a313255d589ac3843c5e1a18e39c008d4OUT 0x7918fe9f8411c764681ff34cec19e372ce1de6ed0 BNB0.00018437
0x4f52c73911bf4ce7236747384d70a4dd15bfe24ddbbf304343fd27f20fe2ac3c0x1de9c881110603882021-09-19 20:57:368 mins ago0x62885c3a313255d589ac3843c5e1a18e39c008d4OUT 0xb5e42a9285f53da20dd9fdf17c6e25040949f2480 BNB0.000220915
0xce0e036b69cb28e54d141e636fa8907b6052eeeec8ecf74ddfbebd8383d0ec3b0x1de9c881110603752021-09-19 20:56:579 mins ago0x62885c3a313255d589ac3843c5e1a18e39c008d4OUT 0xb5e42a9285f53da20dd9fdf17c6e25040949f2480 BNB0.000184255
0x459a805cf4353eb490e9f2c08b6d86ca8c969e718e28654f061347900aab659e0x1de9c881110602602021-09-19 20:51:1215 mins ago0x62885c3a313255d589ac3843c5e1a18e39c008d4OUT 0x7918fe9f8411c764681ff34cec19e372ce1de6ed0 BNB0.000957455
0x6453fa3668d5bdc16a40fa9b378fbf794b992641d8cd06572f4c7a46e778e23a0x1de9c881110600372021-09-19 20:40:0326 mins ago0x62885c3a313255d589ac3843c5e1a18e39c008d4OUT 0x2138c55179d2b8a809b2554f7236b05ac5b293d30 BNB0.00036839
0xada2429510b42f3c4b7356df5d22cc992ac54a2a49318726f5fe1ea6ad88ad6b0x1de9c881110598172021-09-19 20:29:0337 mins ago0x62885c3a313255d589ac3843c5e1a18e39c008d4OUT 0x7918fe9f8411c764681ff34cec19e372ce1de6ed0 BNB0.000230025
0xa9c666d50b96ea566dab1462051e95d78513ac6eb83a33cd63f53c81733cf8f00x1de9c881110597802021-09-19 20:27:1239 mins ago0x62885c3a313255d589ac3843c5e1a18e39c008d4OUT 0xb5e42a9285f53da20dd9fdf17c6e25040949f2480 BNB0.000265218
0xdb02d7820e2b5efbb061a6c482e298353aa5bb8c144d9e09963b2937b3bcff770x1de9c881110597202021-09-19 20:24:1242 mins ago0x62885c3a313255d589ac3843c5e1a18e39c008d4OUT 0x7918fe9f8411c764681ff34cec19e372ce1de6ed0 BNB0.000230185
0xfd243336b48d8b79935fbc3cf271b114faacbb28b2c2794cfb8a3a987d4b9c0f0x1de9c881110596382021-09-19 20:20:0646 mins ago0x62885c3a313255d589ac3843c5e1a18e39c008d4OUT 0xb5e42a9285f53da20dd9fdf17c6e25040949f2480 BNB0.000202925
0xaef0db3fb3bd10fff0dc6c2c2dd5c92c1afb7ee0b35df7f81042caddc51ef0d50x1de9c881110596252021-09-19 20:19:2747 mins ago0x62885c3a313255d589ac3843c5e1a18e39c008d4OUT 0xb5e42a9285f53da20dd9fdf17c6e25040949f2480 BNB0.000369771462
0xab18ee6e43720ffddd418e91dad26acd1e191bc9184a47e77b6b8d7be87653830x1de9c881110595772021-09-19 20:17:0349 mins ago0x62885c3a313255d589ac3843c5e1a18e39c008d4OUT 0x2138c55179d2b8a809b2554f7236b05ac5b293d30 BNB0.00019313
0xfa80f9e29b58356e95f6ffe627918e4cdf561ccc732f0a1cb74c905c0f6da8820x1de9c881110595532021-09-19 20:15:5150 mins ago0x62885c3a313255d589ac3843c5e1a18e39c008d4OUT 0xb5e42a9285f53da20dd9fdf17c6e25040949f2480 BNB0.001209885
0x2cf1db1bbeb4108622ef6beb8c9a5f7ed5d348b462bca572fafb9ad80ce8eca90x1de9c881110594432021-09-19 20:10:2156 mins ago0x62885c3a313255d589ac3843c5e1a18e39c008d4OUT 0x7918fe9f8411c764681ff34cec19e372ce1de6ed0 BNB0.000220895
0x92d7f5c100e7aaeecdc882262c356ad07e7b188b7da95701045360ddbf8f20c20x1de9c881110594282021-09-19 20:09:3656 mins ago0x62885c3a313255d589ac3843c5e1a18e39c008d4OUT 0x7918fe9f8411c764681ff34cec19e372ce1de6ed0 BNB0.0002432166
0x5fcb5e92dc8d24ed049c6a5ee31617cf37e13b0aba9816fefb86b8771f3ad0dc0x1de9c881110593722021-09-19 20:06:4759 mins ago0x62885c3a313255d589ac3843c5e1a18e39c008d4OUT 0x7918fe9f8411c764681ff34cec19e372ce1de6ed0 BNB0.000230025
0xc9185f1a27032508872f2fa00adc34630f4b311289a59ec8061eb5e35af4a25aTransfer110593422021-09-19 20:05:171 hr 1 min ago0x62885c3a313255d589ac3843c5e1a18e39c008d4SELF0x62885c3a313255d589ac3843c5e1a18e39c008d40 BNB0.00011655
0x5e3f654ee2b79fe1b234e7c6571337fb177886baa25f3cfb80513fde72925a8e0x1de9c881110593102021-09-19 20:03:411 hr 2 mins ago0x62885c3a313255d589ac3843c5e1a18e39c008d4OUT 0xb5e42a9285f53da20dd9fdf17c6e25040949f2480 BNB0.00018396
0xbb543647f10d4808fc1a29c02b00a554206c0b8fba6c948c7f1b7433f19bf6790x1de9c881110592212021-09-19 19:59:141 hr 7 mins ago0x62885c3a313255d589ac3843c5e1a18e39c008d4OUT 0x2138c55179d2b8a809b2554f7236b05ac5b293d30 BNB0.000212075
0xdaae97bb2bf409c1bd8587588ed2b9c7077d2630b298ac7f535112448fd70811Transfer110591712021-09-19 19:56:441 hr 9 mins ago0x62885c3a313255d589ac3843c5e1a18e39c008d4SELF0x62885c3a313255d589ac3843c5e1a18e39c008d40 BNB0.00011655
0x676a801c92f54d6b1d7d342fc4fe89b58de46d414ba78b58292a185101aaf97cTransfer110591132021-09-19 19:53:501 hr 12 mins ago0x62885c3a313255d589ac3843c5e1a18e39c008d4SELF0x62885c3a313255d589ac3843c5e1a18e39c008d40 BNB0.00011655
0x56205f6f4083008465e7b1c2f2e341c7ba91c9c977d2ee93b9ca79476386a8a80x1de9c881110590182021-09-19 19:49:051 hr 17 mins ago0x62885c3a313255d589ac3843c5e1a18e39c008d4OUT 0xb5e42a9285f53da20dd9fdf17c6e25040949f2480 BNB0.000221305
0x0aa4802df502a36aae6855e8e837414099ba1a0976205cfbf8ea8c34bd0fa93c0x1de9c881110589902021-09-19 19:47:411 hr 18 mins ago0x62885c3a313255d589ac3843c5e1a18e39c008d4OUT 0x2138c55179d2b8a809b2554f7236b05ac5b293d30 BNB0.000184485
0xdf496a344668e77ca292694070a6ecbe9651ba17c25d4d6b9a5230cbb78fd4b80x1de9c881110588962021-09-19 19:42:591 hr 23 mins ago0x62885c3a313255d589ac3843c5e1a18e39c008d4OUT 0xb5e42a9285f53da20dd9fdf17c6e25040949f2480 BNB0.00020339
0xfb2983e97d19c3cd2629fd7d5a72d0481e3963cfc4db6ec1c991bdf40e878234Transfer110588412021-09-19 19:40:141 hr 26 mins ago0x62885c3a313255d589ac3843c5e1a18e39c008d4SELF0x62885c3a313255d589ac3843c5e1a18e39c008d40 BNB0.00011655
[ Download CSV Export 
Parent Txn Hash Block From To Value
Loading

Contract Name:
0 BNB

Compiler Version
0

Optimization Enabled:
0 BNB

Other Settings:
-NA-
Block Transaction Gas Used Reward
Age Block Fee Address BC Fee Address Voting Power Jailed Incoming
Block Uncle Number Difficulty Gas Used Reward
Loading
Loading
Make sure to use the "Vote Down" button for any spammy posts, and the "Vote Up" for interesting conversations.